Time;durP1;ratioP1;P1;durP2;ratioP2;P2;SDS_P1;SDS_P2;PMS_P1;PMS_P2;Temp;Humidity;BMP_temperature;BMP_pressure;BME280_temperature;BME280_humidity;BME280_pressure;Samples;Min_cycle;Max_cycle;Signal;HPM_P1;HPM_P2
2021/08/08 00:01:49;;;;;;;13.87;13.17;;;17.90;99.90;;;;;;5071185;28;20466;-69
2021/08/08 00:04:16;;;;;;;13.40;12.90;;;17.90;99.90;;;;;;5069569;28;20455;-69
2021/08/08 00:06:42;;;;;;;13.20;12.70;;;17.90;99.90;;;;;;5051426;28;20941;-69
2021/08/08 00:09:09;;;;;;;13.57;12.80;;;17.90;99.90;;;;;;5051442;28;20436;-69
2021/08/08 00:11:38;;;;;;;13.37;12.97;;;17.90;99.90;;;;;;5051209;28;20440;-69
2021/08/08 00:14:05;;;;;;;13.33;12.83;;;17.90;99.90;;;;;;5051428;28;20503;-69
2021/08/08 00:16:32;;;;;;;13.47;12.90;;;17.90;99.90;;;;;;5051344;28;20451;-69
2021/08/08 00:18:58;;;;;;;13.40;13.00;;;17.80;99.90;;;;;;5058455;28;20478;-69
2021/08/08 00:21:25;;;;;;;14.40;13.77;;;17.80;99.90;;;;;;5071004;28;20909;-70
2021/08/08 00:23:52;;;;;;;13.00;12.60;;;17.70;99.90;;;;;;5071345;28;20463;-69
2021/08/08 00:26:19;;;;;;;13.40;12.90;;;17.70;99.90;;;;;;5071173;28;20450;-67
2021/08/08 00:28:48;;;;;;;15.67;14.63;;;17.70;99.90;;;;;;5071123;28;20497;-69
2021/08/08 00:31:16;;;;;;;14.17;13.47;;;17.60;99.90;;;;;;5071244;28;20454;-69
2021/08/08 00:33:43;;;;;;;13.40;12.87;;;17.70;99.90;;;;;;5071160;28;20493;-69
2021/08/08 00:36:10;;;;;;;13.50;12.90;;;17.70;99.90;;;;;;5054227;28;20811;-69
2021/08/08 00:38:36;;;;;;;13.50;12.90;;;17.70;99.90;;;;;;5051132;28;20487;-69
2021/08/08 00:41:03;;;;;;;13.17;12.63;;;17.70;99.90;;;;;;5051022;28;20452;-68
2021/08/08 00:43:30;;;;;;;13.10;12.47;;;17.70;99.90;;;;;;5058765;28;20475;-69
2021/08/08 00:45:58;;;;;;;13.90;13.23;;;17.70;99.90;;;;;;5071038;28;20952;-68
2021/08/08 00:48:24;;;;;;;12.80;12.40;;;17.70;99.90;;;;;;5071347;28;20507;-69
2021/08/08 00:50:51;;;;;;;13.80;13.10;;;17.70;99.90;;;;;;5071002;28;20454;-69
2021/08/08 00:53:18;;;;;;;13.50;13.10;;;17.70;99.90;;;;;;5073452;28;20846;-69
2021/08/08 00:55:45;;;;;;;13.30;12.90;;;17.70;99.90;;;;;;5075177;28;20454;-69
2021/08/08 00:58:12;;;;;;;13.53;12.93;;;17.70;99.90;;;;;;5060140;28;20475;-69
2021/08/08 01:00:41;;;;;;;13.40;13.00;;;17.70;99.90;;;;;;5054720;28;20452;-69
2021/08/08 01:03:14;;;;;;;13.67;13.17;;;17.70;99.90;;;;;;5054523;28;20471;-69
2021/08/08 01:05:45;;;;;;;13.83;13.33;;;17.70;99.90;;;;;;5054769;28;20514;-70
2021/08/08 01:08:17;;;;;;;13.73;13.23;;;17.70;99.90;;;;;;5054863;28;20447;-69
2021/08/08 01:10:44;;;;;;;13.70;12.93;;;17.70;99.90;;;;;;5054779;28;20440;-69
2021/08/08 01:13:13;;;;;;;14.10;13.20;;;17.70;99.90;;;;;;5058410;28;20459;-69
2021/08/08 01:15:41;;;;;;;14.20;13.00;;;17.60;99.90;;;;;;5074703;28;20442;-69
2021/08/08 01:18:13;;;;;;;14.20;13.20;;;17.60;99.90;;;;;;5074324;28;20848;-69
2021/08/08 01:20:40;;;;;;;13.97;13.47;;;17.60;99.90;;;;;;5074461;28;20443;-69
2021/08/08 01:23:10;;;;;;;12.97;12.57;;;17.70;99.90;;;;;;5074187;28;20987;-69
2021/08/08 01:25:38;;;;;;;14.93;14.03;;;17.60;99.90;;;;;;5074693;28;20435;-69
2021/08/08 01:28:05;;;;;;;13.80;13.20;;;17.60;99.90;;;;;;5074179;28;20444;-69
2021/08/08 01:30:32;;;;;;;13.67;12.97;;;17.60;99.90;;;;;;5072735;28;20514;-69
2021/08/08 01:33:03;;;;;;;12.70;12.30;;;17.60;99.90;;;;;;5073478;28;20474;-69
2021/08/08 01:35:30;;;;;;;12.70;12.13;;;17.70;99.90;;;;;;5074297;28;20536;-69
2021/08/08 01:37:57;;;;;;;12.70;12.20;;;17.60;99.90;;;;;;5074100;28;20482;-69
2021/08/08 01:40:29;;;;;;;13.03;12.63;;;17.60;99.90;;;;;;5074200;28;20470;-69
2021/08/08 01:42:58;;;;;;;13.87;13.20;;;17.60;99.90;;;;;;5073567;28;20539;-69
2021/08/08 01:45:26;;;;;;;15.13;14.43;;;17.60;99.90;;;;;;5073631;28;20466;-69
2021/08/08 01:47:57;;;;;;;13.40;12.90;;;17.60;99.90;;;;;;5072683;28;20825;-69
2021/08/08 01:50:26;;;;;;;14.07;13.30;;;17.60;99.90;;;;;;5073926;28;21031;-69
2021/08/08 01:52:53;;;;;;;14.23;13.60;;;17.50;99.90;;;;;;5073483;28;20977;-69
2021/08/08 01:55:20;;;;;;;13.70;12.90;;;17.50;99.90;;;;;;5073337;28;20466;-69
2021/08/08 01:57:47;;;;;;;12.90;12.40;;;17.50;99.90;;;;;;5073913;28;20448;-67
2021/08/08 02:00:19;;;;;;;13.00;12.00;;;17.60;99.90;;;;;;5072760;28;20447;-69
2021/08/08 02:02:50;;;;;;;14.40;13.57;;;17.60;99.90;;;;;;5059951;28;20491;-68
2021/08/08 02:05:19;;;;;;;14.13;13.40;;;17.60;99.90;;;;;;5072632;28;20451;-68
2021/08/08 02:07:46;;;;;;;13.33;12.60;;;17.50;99.90;;;;;;5061004;28;20471;-67
2021/08/08 02:10:13;;;;;;;14.70;13.73;;;17.40;99.90;;;;;;5053847;28;20451;-68
2021/08/08 02:12:39;;;;;;;13.00;12.53;;;17.40;99.90;;;;;;5053796;28;20464;-68
2021/08/08 02:15:09;;;;;;;13.67;12.97;;;17.40;99.90;;;;;;5062193;28;20451;-68
2021/08/08 02:17:37;;;;;;;13.63;12.93;;;17.40;99.90;;;;;;5073818;28;20447;-68
2021/08/08 02:20:04;;;;;;;13.60;13.10;;;17.30;99.90;;;;;;5073393;28;20486;-68
2021/08/08 02:22:31;;;;;;;14.53;13.60;;;17.30;99.90;;;;;;5073459;28;20467;-68
2021/08/08 02:24:58;;;;;;;13.67;13.00;;;17.20;99.90;;;;;;5073456;28;20457;-68
2021/08/08 02:27:25;;;;;;;18.43;13.20;;;17.20;99.90;;;;;;5073499;28;20447;-68
2021/08/08 02:29:51;;;;;;;13.70;12.90;;;17.10;99.90;;;;;;5073494;28;20443;-68
2021/08/08 02:32:18;;;;;;;13.93;13.03;;;17.10;99.90;;;;;;5054842;28;20957;-69
2021/08/08 02:34:46;;;;;;;14.07;13.27;;;17.10;99.90;;;;;;5053626;28;20471;-69
2021/08/08 02:37:13;;;;;;;14.00;13.30;;;17.00;99.90;;;;;;5053487;28;20447;-69
2021/08/08 02:39:39;;;;;;;19.43;15.70;;;17.00;99.90;;;;;;5053063;28;20487;-68
2021/08/08 02:42:06;;;;;;;14.50;13.70;;;17.00;99.90;;;;;;5053331;28;20475;-67
2021/08/08 02:44:33;;;;;;;13.27;12.67;;;16.90;99.90;;;;;;5053174;28;20467;-68
2021/08/08 02:46:59;;;;;;;13.97;13.27;;;16.90;99.90;;;;;;5054148;28;20946;-69
2021/08/08 02:49:26;;;;;;;14.00;13.33;;;16.80;99.90;;;;;;5052960;28;20455;-69
2021/08/08 02:51:54;;;;;;;13.60;12.90;;;16.90;99.90;;;;;;5052496;28;20444;-69
2021/08/08 02:54:21;;;;;;;14.20;13.30;;;16.90;99.90;;;;;;5052830;28;20534;-69
2021/08/08 02:56:48;;;;;;;13.80;13.20;;;16.90;99.90;;;;;;5053178;28;20447;-68
2021/08/08 02:59:15;;;;;;;14.47;13.70;;;16.80;99.90;;;;;;5052660;28;20479;-69
2021/08/08 03:01:41;;;;;;;14.50;13.13;;;16.80;99.90;;;;;;5052294;28;20961;-69
2021/08/08 03:04:08;;;;;;;14.40;13.60;;;16.70;99.90;;;;;;5053850;28;20455;-69
2021/08/08 03:06:34;;;;;;;12.93;12.53;;;16.70;99.90;;;;;;5052536;28;20448;-68
2021/08/08 03:09:03;;;;;;;14.87;13.43;;;16.70;99.90;;;;;;5052477;28;20436;-68
2021/08/08 03:11:29;;;;;;;14.43;13.57;;;16.60;99.90;;;;;;5052219;28;20444;-68
2021/08/08 03:13:56;;;;;;;14.50;13.70;;;16.60;99.90;;;;;;5052114;28;20460;-68
2021/08/08 03:16:23;;;;;;;14.20;13.40;;;16.50;99.90;;;;;;5051919;28;20451;-68
2021/08/08 03:18:49;;;;;;;14.60;13.70;;;16.50;99.90;;;;;;5052191;28;20845;-68
2021/08/08 03:21:16;;;;;;;13.83;13.03;;;16.50;99.90;;;;;;5065906;28;20452;-68
2021/08/08 03:23:43;;;;;;;15.33;14.60;;;16.40;99.90;;;;;;5071936;28;20463;-68
2021/08/08 03:26:11;;;;;;;14.53;13.70;;;16.40;99.90;;;;;;5072144;28;20944;-69
2021/08/08 03:28:37;;;;;;;14.17;13.40;;;16.40;99.90;;;;;;5071969;28;20439;-68
2021/08/08 03:31:04;;;;;;;14.50;13.60;;;16.40;99.90;;;;;;5071886;28;20447;-68
2021/08/08 03:33:31;;;;;;;14.60;13.70;;;16.40;99.90;;;;;;5071891;28;20829;-68
2021/08/08 03:35:57;;;;;;;15.10;13.63;;;16.30;99.90;;;;;;5071953;28;20850;-68
2021/08/08 03:38:24;;;;;;;14.40;13.60;;;16.30;99.90;;;;;;5069997;28;20840;-68
2021/08/08 03:40:51;;;;;;;14.37;13.57;;;16.30;99.90;;;;;;5072008;28;20442;-68
2021/08/08 03:43:20;;;;;;;14.73;13.87;;;16.30;99.90;;;;;;5071418;28;20471;-68
2021/08/08 03:45:46;;;;;;;13.40;12.60;;;16.20;99.90;;;;;;5071779;28;20447;-68
2021/08/08 03:48:13;;;;;;;14.77;13.47;;;16.20;99.90;;;;;;5071754;28;20439;-68
2021/08/08 03:50:40;;;;;;;13.50;12.90;;;16.30;99.90;;;;;;5071716;28;20450;-68
2021/08/08 03:53:07;;;;;;;14.57;13.80;;;16.20;99.90;;;;;;5065460;28;20468;-68
2021/08/08 03:55:34;;;;;;;16.27;15.20;;;16.10;99.90;;;;;;5051831;28;20447;-68
2021/08/08 03:58:01;;;;;;;15.17;13.97;;;16.10;99.90;;;;;;5051620;28;20471;-69
2021/08/08 04:00:29;;;;;;;14.90;14.00;;;16.10;99.90;;;;;;5051577;28;20480;-68
2021/08/08 04:02:56;;;;;;;14.60;13.67;;;16.00;99.90;;;;;;5051287;28;20966;-68
2021/08/08 04:05:22;;;;;;;14.10;13.30;;;16.00;99.90;;;;;;5051437;28;20452;-68
2021/08/08 04:07:49;;;;;;;14.80;13.63;;;15.90;99.90;;;;;;5051472;28;20452;-69
2021/08/08 04:10:16;;;;;;;15.00;14.10;;;15.90;99.90;;;;;;5063889;28;20440;-68
2021/08/08 04:12:43;;;;;;;14.70;13.83;;;15.90;99.90;;;;;;5070786;28;20549;-68
2021/08/08 04:15:10;;;;;;;14.37;13.60;;;15.90;99.90;;;;;;5071351;28;20447;-68
2021/08/08 04:17:39;;;;;;;14.00;13.00;;;15.90;99.90;;;;;;5071315;28;20447;-68
2021/08/08 04:20:06;;;;;;;14.50;13.60;;;15.90;99.90;;;;;;5071054;28;20996;-68
2021/08/08 04:22:33;;;;;;;15.13;14.40;;;15.90;99.90;;;;;;5070793;28;20463;-68
2021/08/08 04:25:00;;;;;;;15.33;14.23;;;15.90;99.90;;;;;;5069202;28;20458;-68
2021/08/08 04:27:26;;;;;;;16.13;14.77;;;15.90;99.90;;;;;;5050447;28;20449;-69
2021/08/08 04:29:53;;;;;;;14.33;13.47;;;15.90;99.90;;;;;;5051114;28;20930;-68
2021/08/08 04:32:20;;;;;;;14.40;13.50;;;15.80;99.90;;;;;;5050818;28;20472;-69
2021/08/08 04:34:48;;;;;;;14.67;13.83;;;15.80;99.90;;;;;;5051286;28;20447;-68
2021/08/08 04:37:14;;;;;;;14.60;13.80;;;15.90;99.90;;;;;;5051384;28;20768;-69
2021/08/08 04:39:41;;;;;;;14.90;14.10;;;15.90;99.90;;;;;;5050507;28;20482;-69
2021/08/08 04:42:08;;;;;;;15.03;14.07;;;15.90;99.90;;;;;;5052023;28;20825;-69
2021/08/08 04:44:35;;;;;;;13.33;12.60;;;15.90;99.90;;;;;;5051058;28;20825;-69
2021/08/08 04:47:01;;;;;;;15.57;14.50;;;15.90;99.90;;;;;;5050953;28;20455;-69
2021/08/08 04:49:28;;;;;;;15.10;14.10;;;15.80;99.90;;;;;;5051076;28;20440;-69
2021/08/08 04:51:56;;;;;;;15.33;14.07;;;15.80;99.90;;;;;;5050853;28;20974;-69
2021/08/08 04:54:23;;;;;;;14.50;13.70;;;15.80;99.90;;;;;;5050967;28;20455;-69
2021/08/08 04:56:49;;;;;;;14.17;13.27;;;15.90;99.90;;;;;;5051425;28;20451;-69
2021/08/08 04:59:16;;;;;;;14.07;13.27;;;15.90;99.90;;;;;;5052021;28;20479;-69
2021/08/08 05:01:42;;;;;;;14.40;13.60;;;16.00;99.90;;;;;;5050651;28;20800;-69
2021/08/08 05:04:09;;;;;;;16.23;15.20;;;16.10;99.90;;;;;;5066898;28;20817;-68
2021/08/08 05:06:36;;;;;;;15.90;14.70;;;16.20;99.90;;;;;;5069123;28;20807;-69
2021/08/08 05:09:04;;;;;;;13.67;13.07;;;16.30;99.90;;;;;;5069234;28;20832;-68
2021/08/08 05:11:32;;;;;;;14.57;13.77;;;16.30;99.90;;;;;;5070327;28;20458;-68
2021/08/08 05:13:59;;;;;;;15.70;14.60;;;16.50;99.90;;;;;;5070705;28;20517;-68
2021/08/08 05:16:25;;;;;;;14.97;14.03;;;16.50;99.90;;;;;;5069343;28;20530;-69
2021/08/08 05:18:52;;;;;;;15.17;14.10;;;16.60;99.90;;;;;;5070767;28;20470;-70
2021/08/08 05:21:19;;;;;;;16.33;15.00;;;16.70;99.90;;;;;;5070853;28;20454;-69
2021/08/08 05:23:47;;;;;;;14.97;14.07;;;16.80;99.90;;;;;;5070987;28;20464;-65
2021/08/08 05:26:15;;;;;;;16.33;15.10;;;16.80;99.90;;;;;;5070896;28;21008;-64
2021/08/08 05:28:43;;;;;;;15.10;14.00;;;16.80;99.90;;;;;;5070824;28;20446;-64
2021/08/08 05:31:09;;;;;;;15.43;14.23;;;16.70;99.90;;;;;;5069038;28;20584;-64
2021/08/08 05:33:36;;;;;;;14.63;13.53;;;16.70;99.90;;;;;;5070780;28;20463;-64
2021/08/08 05:36:03;;;;;;;15.00;14.37;;;16.70;99.90;;;;;;5070893;28;20447;-64
2021/08/08 05:38:30;;;;;;;15.03;13.90;;;16.80;99.90;;;;;;5072156;28;20447;-64
2021/08/08 05:40:57;;;;;;;14.77;13.83;;;16.90;99.90;;;;;;5073924;28;20512;-64
2021/08/08 05:43:25;;;;;;;16.70;15.23;;;17.00;99.90;;;;;;5073975;28;20983;-65
2021/08/08 05:45:52;;;;;;;14.80;13.80;;;17.00;99.90;;;;;;5074271;28;20454;-65
2021/08/08 05:48:19;;;;;;;15.97;14.90;;;17.10;99.90;;;;;;5071903;28;20457;-65
2021/08/08 05:50:45;;;;;;;14.97;14.17;;;17.10;99.90;;;;;;5074434;28;20443;-65
2021/08/08 05:53:12;;;;;;;14.30;13.67;;;17.20;99.90;;;;;;5073087;28;20984;-65
2021/08/08 05:55:44;;;;;;;14.57;13.87;;;17.30;99.90;;;;;;5073881;28;20447;-65
2021/08/08 05:58:10;;;;;;;15.53;14.07;;;17.40;99.90;;;;;;5074135;28;20501;-65
2021/08/08 06:00:38;;;;;;;15.53;14.33;;;17.40;99.90;;;;;;5073984;28;20479;-65
2021/08/08 06:03:09;;;;;;;14.60;13.70;;;17.50;99.90;;;;;;5073812;28;20463;-65
2021/08/08 06:05:36;;;;;;;15.17;14.17;;;17.50;99.90;;;;;;5072232;28;20801;-65
2021/08/08 06:08:03;;;;;;;14.87;13.97;;;17.60;99.90;;;;;;5073652;28;20443;-65
2021/08/08 06:10:30;;;;;;;15.03;13.77;;;17.70;99.90;;;;;;5073972;28;20446;-65
2021/08/08 06:12:56;;;;;;;15.33;14.43;;;17.70;99.90;;;;;;5073476;28;20476;-65
2021/08/08 06:15:23;;;;;;;17.83;15.83;;;17.70;99.90;;;;;;5073681;28;20872;-65
2021/08/08 06:17:51;;;;;;;15.03;14.20;;;17.70;99.90;;;;;;5073599;28;20447;-65
2021/08/08 06:20:18;;;;;;;15.23;14.33;;;17.60;99.90;;;;;;5073153;28;20509;-65
2021/08/08 06:22:45;;;;;;;14.90;14.10;;;17.60;99.90;;;;;;5072223;28;20474;-66
2021/08/08 06:25:12;;;;;;;15.33;14.40;;;17.70;99.90;;;;;;5073562;28;20446;-65
2021/08/08 06:27:39;;;;;;;15.30;14.10;;;17.70;99.90;;;;;;5073536;28;20443;-65
2021/08/08 06:30:06;;;;;;;15.73;14.73;;;17.60;99.90;;;;;;5073101;28;20451;-65
2021/08/08 06:32:33;;;;;;;14.40;13.60;;;17.80;99.90;;;;;;5073060;28;20463;-65
2021/08/08 06:35:01;;;;;;;16.87;15.57;;;17.90;99.90;;;;;;5073293;28;20956;-65
2021/08/08 06:37:28;;;;;;;14.80;14.03;;;18.00;99.90;;;;;;5071688;28;20451;-65
2021/08/08 06:39:54;;;;;;;15.37;14.50;;;18.20;99.90;;;;;;5073030;28;20532;-65
2021/08/08 06:42:21;;;;;;;15.13;14.03;;;18.30;99.90;;;;;;5072721;28;20459;-65
2021/08/08 06:44:48;;;;;;;15.00;14.10;;;18.20;99.90;;;;;;5073096;28;20457;-65
2021/08/08 06:47:15;;;;;;;14.60;13.90;;;18.30;99.90;;;;;;5073027;28;20447;-65
2021/08/08 06:49:41;;;;;;;15.60;14.70;;;18.20;99.90;;;;;;5072150;28;20439;-65
2021/08/08 06:52:09;;;;;;;15.73;15.03;;;18.20;99.90;;;;;;5072573;28;20467;-65
2021/08/08 06:54:36;;;;;;;16.07;14.90;;;18.30;99.90;;;;;;5071160;28;20439;-65
2021/08/08 06:57:03;;;;;;;25.37;16.60;;;18.20;99.90;;;;;;5072634;28;20435;-65
2021/08/08 06:59:30;;;;;;;15.60;14.90;;;18.20;99.90;;;;;;5072834;28;20470;-65
2021/08/08 07:01:57;;;;;;;16.10;15.23;;;18.20;99.90;;;;;;5072465;28;21045;-65
2021/08/08 07:04:24;;;;;;;14.70;13.90;;;18.10;99.90;;;;;;5072801;28;20486;-65
2021/08/08 07:06:51;;;;;;;15.10;14.43;;;18.10;99.90;;;;;;5072429;28;20447;-65
2021/08/08 07:09:19;;;;;;;14.47;13.80;;;18.30;99.90;;;;;;5072532;28;20447;-65
2021/08/08 07:11:46;;;;;;;14.90;14.20;;;18.40;99.90;;;;;;5070255;28;20454;-65
2021/08/08 07:14:12;;;;;;;15.83;14.40;;;18.30;99.90;;;;;;5072545;28;20447;-65
2021/08/08 07:16:39;;;;;;;14.70;13.40;;;18.40;99.90;;;;;;5072492;28;20451;-65
2021/08/08 07:19:06;;;;;;;15.40;14.40;;;18.50;99.90;;;;;;5072545;28;20443;-65
2021/08/08 07:21:32;;;;;;;14.90;14.10;;;18.50;99.90;;;;;;5072340;28;20507;-65
2021/08/08 07:23:59;;;;;;;15.37;14.00;;;18.60;99.90;;;;;;5072264;28;20466;-64
2021/08/08 07:26:27;;;;;;;15.03;14.10;;;18.60;99.90;;;;;;5070584;28;20451;-65
2021/08/08 07:28:54;;;;;;;14.33;13.73;;;18.60;99.90;;;;;;5072272;28;20508;-65
2021/08/08 07:31:21;;;;;;;15.27;13.90;;;18.60;99.90;;;;;;5072127;28;20815;-65
2021/08/08 07:33:48;;;;;;;15.27;14.17;;;18.60;99.90;;;;;;5072049;28;20463;-65
2021/08/08 07:36:14;;;;;;;15.97;14.67;;;18.70;99.90;;;;;;5071779;28;20452;-65
2021/08/08 07:38:41;;;;;;;14.17;13.47;;;19.00;99.90;;;;;;5071914;28;20933;-65
2021/08/08 07:41:11;;;;;;;13.97;13.17;;;18.90;99.90;;;;;;5071550;28;20486;-65
2021/08/08 07:43:39;;;;;;;14.67;13.80;;;19.00;99.90;;;;;;5070012;28;20511;-65
2021/08/08 07:46:05;;;;;;;16.37;14.90;;;19.20;99.90;;;;;;5071802;28;20936;-65
2021/08/08 07:48:32;;;;;;;14.83;13.80;;;19.50;99.90;;;;;;5071896;28;20444;-65
2021/08/08 07:50:59;;;;;;;15.47;14.33;;;19.40;99.90;;;;;;5071524;28;20440;-65
2021/08/08 07:53:26;;;;;;;15.17;14.20;;;19.50;99.90;;;;;;5071659;28;20459;-65
2021/08/08 07:55:55;;;;;;;15.47;14.30;;;19.60;99.90;;;;;;5071661;28;20452;-65
2021/08/08 07:58:22;;;;;;;15.60;14.50;;;19.80;99.90;;;;;;5071828;28;20443;-66
2021/08/08 08:00:50;;;;;;;17.07;15.67;;;19.80;99.90;;;;;;5069885;28;20479;-66
2021/08/08 08:03:17;;;;;;;15.20;14.30;;;19.90;99.90;;;;;;5071253;28;20463;-66
2021/08/08 08:05:43;;;;;;;15.37;14.37;;;20.00;99.90;;;;;;5071945;28;20924;-66
2021/08/08 08:08:10;;;;;;;16.43;15.53;;;20.40;99.90;;;;;;5071836;28;20450;-65
2021/08/08 08:10:37;;;;;;;16.00;15.00;;;20.50;99.90;;;;;;5071721;28;20435;-66
2021/08/08 08:13:04;;;;;;;16.40;15.50;;;20.40;99.90;;;;;;5071181;28;20466;-65
2021/08/08 08:15:31;;;;;;;16.10;14.70;;;20.10;99.90;;;;;;5053600;28;20453;-66
2021/08/08 08:17:59;;;;;;;16.30;15.20;;;20.10;99.90;;;;;;5051556;28;20957;-66
2021/08/08 08:20:27;;;;;;;16.37;15.37;;;20.30;99.90;;;;;;5051453;28;20517;-66
2021/08/08 08:22:54;;;;;;;17.10;15.60;;;20.60;99.90;;;;;;5051477;28;20502;-66
2021/08/08 08:25:22;;;;;;;15.20;14.57;;;20.60;99.50;;;;;;5051439;28;20452;-66
2021/08/08 08:27:50;;;;;;;17.50;15.43;;;20.60;99.80;;;;;;5051368;28;21153;-66
2021/08/08 08:30:17;;;;;;;15.87;14.73;;;20.60;99.90;;;;;;5058462;28;20968;-65
2021/08/08 08:32:44;;;;;;;16.80;15.67;;;20.50;99.30;;;;;;5071071;28;20464;-65
2021/08/08 08:35:13;;;;;;;17.40;16.10;;;20.50;99.40;;;;;;5070950;28;20451;-65
2021/08/08 08:37:40;;;;;;;15.87;14.80;;;20.50;98.90;;;;;;5071019;28;20452;-65
2021/08/08 08:40:07;;;;;;;15.33;14.23;;;20.50;98.60;;;;;;5051118;28;20476;-65
2021/08/08 08:42:36;;;;;;;15.87;14.70;;;20.90;98.70;;;;;;5050947;28;20807;-67
2021/08/08 08:45:04;;;;;;;15.73;14.80;;;21.10;97.70;;;;;;5051180;28;20954;-65
2021/08/08 08:47:31;;;;;;;15.93;15.03;;;21.30;96.50;;;;;;5063414;28;20474;-65
2021/08/08 08:50:00;;;;;;;15.63;14.70;;;21.30;96.40;;;;;;5071234;28;20443;-64
2021/08/08 08:52:29;;;;;;;14.93;14.13;;;21.30;96.30;;;;;;5070925;28;20463;-65
2021/08/08 08:54:57;;;;;;;15.10;14.20;;;21.60;95.70;;;;;;5071168;28;20451;-67
2021/08/08 08:57:24;;;;;;;16.03;15.10;;;21.90;94.30;;;;;;5071135;28;20447;-67
2021/08/08 08:59:52;;;;;;;16.10;15.00;;;22.20;93.50;;;;;;5071160;28;20451;-66
2021/08/08 09:02:19;;;;;;;15.80;14.70;;;22.50;92.00;;;;;;5069598;28;20461;-65
2021/08/08 09:04:46;;;;;;;15.87;14.97;;;22.30;91.00;;;;;;5051126;28;20443;-66
2021/08/08 09:07:12;;;;;;;16.57;15.37;;;21.80;91.60;;;;;;5051120;28;20444;-66
2021/08/08 09:09:40;;;;;;;15.70;14.60;;;21.50;92.30;;;;;;5050831;28;20443;-66
2021/08/08 09:12:08;;;;;;;15.07;14.13;;;21.30;92.70;;;;;;5050712;28;20463;-66
2021/08/08 09:14:35;;;;;;;14.03;13.33;;;21.30;93.70;;;;;;5054162;28;20955;-66
2021/08/08 09:17:03;;;;;;;14.87;13.50;;;21.40;93.00;;;;;;5054700;28;20783;-66
2021/08/08 09:19:32;;;;;;;14.60;13.70;;;21.40;92.50;;;;;;5055817;28;20440;-66
2021/08/08 09:21:59;;;;;;;15.40;14.40;;;21.40;93.20;;;;;;5054406;28;20487;-66
2021/08/08 09:24:27;;;;;;;15.83;14.80;;;21.30;92.60;;;;;;5054573;28;20486;-66
2021/08/08 09:27:04;;;;;;;15.13;14.13;;;21.00;92.90;;;;;;5054729;28;20444;-66
2021/08/08 09:29:32;;;;;;;15.47;14.47;;;21.20;92.60;;;;;;5054629;28;20444;-66
2021/08/08 09:31:59;;;;;;;15.23;14.53;;;21.40;92.80;;;;;;5054211;28;20537;-67
2021/08/08 09:34:28;;;;;;;15.00;14.20;;;21.50;92.50;;;;;;5054579;28;20527;-66
2021/08/08 09:36:57;;;;;;;15.47;14.67;;;21.70;92.10;;;;;;5055576;28;20950;-66
2021/08/08 09:39:29;;;;;;;15.67;14.57;;;21.80;91.70;;;;;;5054282;28;20451;-66
2021/08/08 09:42:08;;;;;;;16.00;14.87;;;22.00;90.50;;;;;;5053926;28;20505;-66
2021/08/08 09:44:35;;;;;;;15.67;14.60;;;21.90;90.90;;;;;;5054140;28;20474;-66
2021/08/08 09:47:02;;;;;;;14.93;14.10;;;22.00;91.40;;;;;;5054238;28;20451;-66
2021/08/08 09:49:29;;;;;;;14.63;14.00;;;22.30;91.80;;;;;;5054358;28;20440;-66
2021/08/08 09:51:55;;;;;;;15.67;14.57;;;22.40;90.10;;;;;;5053754;28;20456;-66
2021/08/08 09:54:22;;;;;;;18.47;17.23;;;22.90;87.30;;;;;;5073033;28;20447;-67
2021/08/08 09:56:58;;;;;;;15.97;14.93;;;23.30;85.50;;;;;;5074267;28;20929;-67
2021/08/08 09:59:26;;;;;;;16.33;15.50;;;23.40;82.00;;;;;;5073969;28;20445;-66
2021/08/08 10:01:53;;;;;;;16.23;15.40;;;23.60;81.50;;;;;;5073702;28;20478;-66
2021/08/08 10:04:20;;;;;;;14.53;13.90;;;23.60;77.50;;;;;;5073894;28;20492;-66
2021/08/08 10:06:47;;;;;;;15.43;14.47;;;23.60;76.90;;;;;;5073975;28;20446;-66
2021/08/08 10:09:16;;;;;;;16.13;15.03;;;23.30;77.80;;;;;;5071833;28;20451;-66
2021/08/08 10:11:46;;;;;;;14.80;14.20;;;23.20;77.50;;;;;;5073238;28;20443;-67
2021/08/08 10:14:14;;;;;;;16.10;15.17;;;22.90;79.10;;;;;;5073676;28;20963;-66
2021/08/08 10:16:44;;;;;;;15.90;14.90;;;22.70;81.00;;;;;;5073103;28;20454;-66
2021/08/08 10:19:12;;;;;;;15.00;14.20;;;22.90;83.40;;;;;;5073337;28;20450;-66
2021/08/08 10:21:43;;;;;;;15.80;15.00;;;23.30;81.30;;;;;;5057251;28;20480;-66
2021/08/08 10:24:12;;;;;;;16.23;15.40;;;23.50;79.70;;;;;;5052797;28;20444;-66
2021/08/08 10:26:38;;;;;;;16.23;15.07;;;23.80;77.90;;;;;;5053040;28;20448;-66
2021/08/08 10:29:05;;;;;;;16.87;15.60;;;24.40;77.00;;;;;;5056194;28;20455;-67
2021/08/08 10:31:33;;;;;;;15.63;14.93;;;24.80;74.90;;;;;;5072914;28;20447;-66
2021/08/08 10:34:01;;;;;;;16.07;15.10;;;25.20;74.30;;;;;;5073162;28;20454;-66
2021/08/08 10:36:30;;;;;;;15.93;15.30;;;24.70;72.20;;;;;;5073171;28;20447;-67
2021/08/08 10:39:08;;;;;;;15.60;14.60;;;24.60;70.40;;;;;;5073306;28;20446;-66
2021/08/08 10:41:36;;;;;;;15.10;14.30;;;24.40;69.20;;;;;;5072865;28;20478;-66
2021/08/08 10:44:10;;;;;;;15.80;14.97;;;24.70;70.70;;;;;;5061523;28;20455;-66
2021/08/08 10:46:55;;;;;;;17.20;16.10;;;25.10;69.60;;;;;;5053250;28;20916;-67
2021/08/08 10:49:31;;;;;;;16.83;16.03;;;25.00;67.10;;;;;;5053183;28;20436;-66
2021/08/08 10:51:59;;;;;;;15.07;14.40;;;24.70;65.80;;;;;;5052734;28;20464;-67
2021/08/08 10:54:26;;;;;;;15.67;14.77;;;24.40;65.90;;;;;;5052938;28;20533;-66
2021/08/08 10:56:53;;;;;;;15.90;15.10;;;24.60;66.60;;;;;;5053440;28;20452;-66
2021/08/08 10:59:22;;;;;;;15.93;15.03;;;24.40;66.20;;;;;;5053952;28;20448;-66
2021/08/08 11:02:07;;;;;;;14.90;14.30;;;24.00;67.10;;;;;;5052550;28;20831;-66
2021/08/08 11:04:35;;;;;;;16.23;15.60;;;24.00;67.50;;;;;;5052880;28;20470;-66
2021/08/08 11:07:03;;;;;;;15.70;15.10;;;23.90;67.20;;;;;;5052633;28;20444;-66
2021/08/08 11:09:31;;;;;;;16.53;15.73;;;23.50;68.70;;;;;;5052628;28;20448;-66
2021/08/08 11:11:58;;;;;;;15.33;14.67;;;23.70;69.60;;;;;;5052255;28;20464;-66
2021/08/08 11:14:26;;;;;;;17.77;16.30;;;23.70;68.10;;;;;;5052576;28;20812;-65
2021/08/08 11:16:59;;;;;;;15.27;14.47;;;23.60;68.40;;;;;;5053824;28;20498;-66
2021/08/08 11:19:33;;;;;;;14.97;14.30;;;24.00;69.50;;;;;;5052436;28;20448;-66
2021/08/08 11:22:11;;;;;;;15.47;14.80;;;24.10;67.50;;;;;;5052203;28;20475;-66
2021/08/08 11:24:39;;;;;;;16.20;15.40;;;24.70;65.30;;;;;;5052509;28;20855;-64
2021/08/08 11:27:07;;;;;;;15.57;15.07;;;25.80;63.50;;;;;;5052416;28;20445;-64
2021/08/08 11:29:35;;;;;;;15.80;15.20;;;27.40;60.70;;;;;;5052229;28;20523;-65
2021/08/08 11:32:04;;;;;;;15.97;15.17;;;27.60;55.60;;;;;;5056516;28;20460;-64
2021/08/08 11:34:31;;;;;;;15.77;15.07;;;26.70;56.00;;;;;;5072083;28;20925;-66
2021/08/08 11:36:58;;;;;;;16.47;15.33;;;25.80;56.70;;;;;;5071810;28;20439;-66
2021/08/08 11:39:33;;;;;;;15.97;15.30;;;25.70;57.90;;;;;;5072070;28;20534;-64
2021/08/08 11:42:02;;;;;;;16.97;16.03;;;25.60;57.60;;;;;;5071749;28;20479;-66
2021/08/08 11:44:40;;;;;;;16.47;15.67;;;25.50;58.00;;;;;;5071971;28;20802;-64
2021/08/08 11:47:07;;;;;;;15.30;14.50;;;26.00;58.20;;;;;;5072024;28;20439;-64
2021/08/08 11:49:45;;;;;;;15.37;14.73;;;26.70;57.50;;;;;;5056543;28;20459;-64
2021/08/08 11:52:14;;;;;;;15.77;14.77;;;28.40;55.50;;;;;;5051535;28;20460;-64
2021/08/08 11:54:43;;;;;;;14.77;14.17;;;29.40;52.60;;;;;;5051876;28;20962;-64
2021/08/08 11:57:10;;;;;;;15.10;14.30;;;30.10;52.30;;;;;;5051899;28;20502;-64
2021/08/08 11:59:38;;;;;;;15.00;14.40;;;29.80;48.70;;;;;;5051904;28;20938;-64
2021/08/08 12:02:07;;;;;;;15.47;14.90;;;27.80;50.50;;;;;;5051502;28;20487;-64
2021/08/08 12:04:36;;;;;;;15.47;14.87;;;29.70;48.00;;;;;;5052611;28;20444;-64
2021/08/08 12:07:04;;;;;;;17.70;16.80;;;28.50;48.70;;;;;;5051719;28;20517;-64
2021/08/08 12:09:32;;;;;;;16.30;15.63;;;28.00;49.60;;;;;;5051846;28;21004;-64
2021/08/08 12:12:01;;;;;;;16.17;15.57;;;27.40;50.20;;;;;;5051300;28;20488;-64
2021/08/08 12:14:34;;;;;;;16.67;16.07;;;28.50;51.40;;;;;;5051553;28;20802;-64
2021/08/08 12:17:02;;;;;;;15.53;14.70;;;28.40;49.10;;;;;;5051527;28;20451;-65
2021/08/08 12:19:29;;;;;;;15.97;15.30;;;28.40;49.50;;;;;;5051421;28;20479;-64
2021/08/08 12:22:01;;;;;;;16.77;16.10;;;30.00;50.80;;;;;;5064202;28;20482;-64
2021/08/08 12:24:32;;;;;;;16.63;15.90;;;33.50;44.20;;;;;;5071541;28;20465;-64
2021/08/08 12:27:00;;;;;;;16.60;16.00;;;32.30;42.60;;;;;;5071552;28;20443;-64
2021/08/08 12:29:32;;;;;;;16.53;15.93;;;34.90;42.10;;;;;;5071480;28;20446;-65
2021/08/08 12:32:14;;;;;;;17.00;16.35;;;38.50;36.40;;;;;;5071188;28;20560;-65